sensor_id;sensor_type;location;lat;lon;timestamp;P1;durP1;ratioP1;P2;durP2;ratioP2
63801;SDS011;49949;43.060;25.624;2023-06-22T00:00:14;21.10;;;14.55;;
63801;SDS011;49949;43.060;25.624;2023-06-22T00:02:40;26.65;;;15.27;;
63801;SDS011;49949;43.060;25.624;2023-06-22T00:05:07;18.30;;;13.27;;
63801;SDS011;49949;43.060;25.624;2023-06-22T00:07:32;20.20;;;13.40;;
63801;SDS011;49949;43.060;25.624;2023-06-22T00:09:58;19.77;;;14.02;;
63801;SDS011;49949;43.060;25.624;2023-06-22T00:12:24;25.77;;;14.40;;
63801;SDS011;49949;43.060;25.624;2023-06-22T00:14:50;23.15;;;14.32;;
63801;SDS011;49949;43.060;25.624;2023-06-22T00:17:15;23.67;;;14.65;;
63801;SDS011;49949;43.060;25.624;2023-06-22T00:19:41;22.42;;;15.77;;
63801;SDS011;49949;43.060;25.624;2023-06-22T00:22:07;25.48;;;15.52;;
63801;SDS011;49949;43.060;25.624;2023-06-22T00:24:33;31.75;;;16.73;;
63801;SDS011;49949;43.060;25.624;2023-06-22T00:26:59;29.23;;;16.20;;
63801;SDS011;49949;43.060;25.624;2023-06-22T00:29:25;29.55;;;16.25;;
63801;SDS011;49949;43.060;25.624;2023-06-22T00:31:51;30.20;;;16.63;;
63801;SDS011;49949;43.060;25.624;2023-06-22T00:34:16;34.35;;;17.42;;
63801;SDS011;49949;43.060;25.624;2023-06-22T00:36:42;23.23;;;16.00;;
63801;SDS011;49949;43.060;25.624;2023-06-22T00:39:08;22.30;;;14.63;;
63801;SDS011;49949;43.060;25.624;2023-06-22T00:41:33;22.88;;;14.40;;
63801;SDS011;49949;43.060;25.624;2023-06-22T00:43:59;19.42;;;12.93;;
63801;SDS011;49949;43.060;25.624;2023-06-22T00:46:25;17.52;;;13.00;;
63801;SDS011;49949;43.060;25.624;2023-06-22T00:48:51;20.67;;;15.82;;
63801;SDS011;49949;43.060;25.624;2023-06-22T00:51:17;23.55;;;16.30;;
63801;SDS011;49949;43.060;25.624;2023-06-22T00:53:45;30.65;;;17.88;;
63801;SDS011;49949;43.060;25.624;2023-06-22T00:56:11;34.50;;;18.73;;
63801;SDS011;49949;43.060;25.624;2023-06-22T00:58:37;21.77;;;15.13;;
63801;SDS011;49949;43.060;25.624;2023-06-22T01:01:06;25.92;;;15.45;;
63801;SDS011;49949;43.060;25.624;2023-06-22T01:03:32;18.73;;;13.52;;
63801;SDS011;49949;43.060;25.624;2023-06-22T01:05:59;23.27;;;14.23;;
63801;SDS011;49949;43.060;25.624;2023-06-22T01:11:37;32.05;;;15.48;;
63801;SDS011;49949;43.060;25.624;2023-06-22T01:14:21;22.10;;;14.35;;
63801;SDS011;49949;43.060;25.624;2023-06-22T01:17:08;17.55;;;12.73;;
63801;SDS011;49949;43.060;25.624;2023-06-22T01:22:06;21.85;;;14.88;;
63801;SDS011;49949;43.060;25.624;2023-06-22T01:30:30;37.75;;;16.42;;
63801;SDS011;49949;43.060;25.624;2023-06-22T01:32:59;27.05;;;18.63;;
63801;SDS011;49949;43.060;25.624;2023-06-22T01:35:28;39.53;;;19.92;;
63801;SDS011;49949;43.060;25.624;2023-06-22T01:37:55;31.30;;;20.48;;
63801;SDS011;49949;43.060;25.624;2023-06-22T01:40:21;29.95;;;17.30;;
63801;SDS011;49949;43.060;25.624;2023-06-22T01:42:48;25.35;;;16.92;;
63801;SDS011;49949;43.060;25.624;2023-06-22T01:45:16;37.10;;;19.25;;
63801;SDS011;49949;43.060;25.624;2023-06-22T01:47:42;38.40;;;21.60;;
63801;SDS011;49949;43.060;25.624;2023-06-22T01:50:08;36.60;;;20.25;;
63801;SDS011;49949;43.060;25.624;2023-06-22T01:52:35;24.25;;;15.43;;
63801;SDS011;49949;43.060;25.624;2023-06-22T01:55:01;32.63;;;16.60;;
63801;SDS011;49949;43.060;25.624;2023-06-22T01:57:26;31.65;;;18.38;;
63801;SDS011;49949;43.060;25.624;2023-06-22T02:00:00;28.85;;;16.88;;
63801;SDS011;49949;43.060;25.624;2023-06-22T02:02:32;30.55;;;17.92;;
63801;SDS011;49949;43.060;25.624;2023-06-22T02:05:07;26.10;;;16.20;;
63801;SDS011;49949;43.060;25.624;2023-06-22T02:07:47;26.08;;;15.10;;
63801;SDS011;49949;43.060;25.624;2023-06-22T02:10:20;29.05;;;15.40;;
63801;SDS011;49949;43.060;25.624;2023-06-22T02:12:48;25.33;;;14.60;;
63801;SDS011;49949;43.060;25.624;2023-06-22T02:15:15;31.35;;;15.48;;
63801;SDS011;49949;43.060;25.624;2023-06-22T02:17:47;25.00;;;14.32;;
63801;SDS011;49949;43.060;25.624;2023-06-22T02:20:13;31.60;;;15.48;;
63801;SDS011;49949;43.060;25.624;2023-06-22T02:22:39;32.97;;;15.75;;
63801;SDS011;49949;43.060;25.624;2023-06-22T02:25:06;19.23;;;15.73;;
63801;SDS011;49949;43.060;25.624;2023-06-22T02:27:32;24.92;;;15.05;;
63801;SDS011;49949;43.060;25.624;2023-06-22T02:29:58;32.00;;;15.27;;
63801;SDS011;49949;43.060;25.624;2023-06-22T02:32:23;21.65;;;15.63;;
63801;SDS011;49949;43.060;25.624;2023-06-22T02:34:50;32.00;;;17.15;;
63801;SDS011;49949;43.060;25.624;2023-06-22T02:37:17;25.48;;;16.30;;
63801;SDS011;49949;43.060;25.624;2023-06-22T02:39:43;31.88;;;16.33;;
63801;SDS011;49949;43.060;25.624;2023-06-22T02:42:08;24.35;;;17.20;;
63801;SDS011;49949;43.060;25.624;2023-06-22T02:44:37;28.25;;;16.05;;
63801;SDS011;49949;43.060;25.624;2023-06-22T02:47:03;24.80;;;16.13;;
63801;SDS011;49949;43.060;25.624;2023-06-22T02:49:29;28.85;;;15.18;;
63801;SDS011;49949;43.060;25.624;2023-06-22T02:51:54;27.23;;;14.30;;
63801;SDS011;49949;43.060;25.624;2023-06-22T02:54:20;27.52;;;13.90;;
63801;SDS011;49949;43.060;25.624;2023-06-22T02:56:46;25.85;;;14.20;;
63801;SDS011;49949;43.060;25.624;2023-06-22T02:59:13;32.55;;;14.60;;
63801;SDS011;49949;43.060;25.624;2023-06-22T03:01:38;21.80;;;14.13;;
63801;SDS011;49949;43.060;25.624;2023-06-22T03:04:08;24.13;;;13.50;;
63801;SDS011;49949;43.060;25.624;2023-06-22T03:06:35;21.85;;;15.38;;
63801;SDS011;49949;43.060;25.624;2023-06-22T03:09:03;42.85;;;25.60;;
63801;SDS011;49949;43.060;25.624;2023-06-22T03:11:32;24.60;;;15.18;;
63801;SDS011;49949;43.060;25.624;2023-06-22T03:13:58;27.63;;;16.27;;
63801;SDS011;49949;43.060;25.624;2023-06-22T03:16:32;29.20;;;14.70;;
63801;SDS011;49949;43.060;25.624;2023-06-22T03:19:02;18.75;;;14.45;;
63801;SDS011;49949;43.060;25.624;2023-06-22T03:21:28;27.85;;;13.48;;
63801;SDS011;49949;43.060;25.624;2023-06-22T03:23:54;19.60;;;13.00;;
63801;SDS011;49949;43.060;25.624;2023-06-22T03:26:20;20.70;;;13.75;;
63801;SDS011;49949;43.060;25.624;2023-06-22T03:28:50;27.50;;;13.57;;
63801;SDS011;49949;43.060;25.624;2023-06-22T03:31:16;23.33;;;12.27;;
63801;SDS011;49949;43.060;25.624;2023-06-22T03:33:45;24.88;;;12.68;;
63801;SDS011;49949;43.060;25.624;2023-06-22T03:36:17;30.80;;;13.77;;
63801;SDS011;49949;43.060;25.624;2023-06-22T03:38:48;16.30;;;12.20;;
63801;SDS011;49949;43.060;25.624;2023-06-22T03:41:15;28.02;;;12.63;;
63801;SDS011;49949;43.060;25.624;2023-06-22T03:43:41;24.60;;;12.30;;
63801;SDS011;49949;43.060;25.624;2023-06-22T03:46:07;19.65;;;13.98;;
63801;SDS011;49949;43.060;25.624;2023-06-22T03:48:32;34.10;;;14.50;;
63801;SDS011;49949;43.060;25.624;2023-06-22T03:51:01;20.25;;;12.77;;
63801;SDS011;49949;43.060;25.624;2023-06-22T03:53:28;23.27;;;13.38;;
63801;SDS011;49949;43.060;25.624;2023-06-22T03:56:01;19.15;;;12.52;;
63801;SDS011;49949;43.060;25.624;2023-06-22T03:58:27;20.77;;;12.30;;
63801;SDS011;49949;43.060;25.624;2023-06-22T04:00:57;21.48;;;12.65;;
63801;SDS011;49949;43.060;25.624;2023-06-22T04:03:25;22.27;;;11.77;;
63801;SDS011;49949;43.060;25.624;2023-06-22T04:05:50;26.08;;;13.40;;
63801;SDS011;49949;43.060;25.624;2023-06-22T04:08:16;27.30;;;13.27;;
63801;SDS011;49949;43.060;25.624;2023-06-22T04:10:43;23.23;;;14.35;;
63801;SDS011;49949;43.060;25.624;2023-06-22T04:13:11;47.35;;;16.10;;
63801;SDS011;49949;43.060;25.624;2023-06-22T04:15:37;40.42;;;17.50;;
63801;SDS011;49949;43.060;25.624;2023-06-22T04:18:03;27.60;;;16.60;;
63801;SDS011;49949;43.060;25.624;2023-06-22T04:20:29;23.25;;;10.20;;
63801;SDS011;49949;43.060;25.624;2023-06-22T04:22:56;18.17;;;10.23;;
63801;SDS011;49949;43.060;25.624;2023-06-22T04:25:22;18.75;;;8.60;;
63801;SDS011;49949;43.060;25.624;2023-06-22T04:27:48;16.13;;;8.75;;
63801;SDS011;49949;43.060;25.624;2023-06-22T04:30:14;17.58;;;9.02;;
63801;SDS011;49949;43.060;25.624;2023-06-22T04:32:41;15.30;;;8.23;;
63801;SDS011;49949;43.060;25.624;2023-06-22T04:35:07;19.58;;;9.70;;
63801;SDS011;49949;43.060;25.624;2023-06-22T04:37:34;20.00;;;10.57;;
63801;SDS011;49949;43.060;25.624;2023-06-22T04:40:00;14.50;;;9.15;;
63801;SDS011;49949;43.060;25.624;2023-06-22T04:42:26;17.15;;;9.20;;
63801;SDS011;49949;43.060;25.624;2023-06-22T04:44:52;19.08;;;9.15;;
63801;SDS011;49949;43.060;25.624;2023-06-22T04:47:18;18.98;;;7.45;;
63801;SDS011;49949;43.060;25.624;2023-06-22T04:49:43;11.95;;;7.32;;
63801;SDS011;49949;43.060;25.624;2023-06-22T04:52:11;13.60;;;7.50;;
63801;SDS011;49949;43.060;25.624;2023-06-22T04:54:39;13.60;;;7.40;;
63801;SDS011;49949;43.060;25.624;2023-06-22T04:57:12;19.80;;;7.47;;
63801;SDS011;49949;43.060;25.624;2023-06-22T04:59:38;14.77;;;6.70;;
63801;SDS011;49949;43.060;25.624;2023-06-22T05:02:06;15.55;;;7.65;;
63801;SDS011;49949;43.060;25.624;2023-06-22T05:04:33;13.90;;;7.32;;
63801;SDS011;49949;43.060;25.624;2023-06-22T05:07:05;17.63;;;7.18;;
63801;SDS011;49949;43.060;25.624;2023-06-22T05:09:32;17.67;;;7.55;;
63801;SDS011;49949;43.060;25.624;2023-06-22T05:11:58;13.23;;;8.13;;
63801;SDS011;49949;43.060;25.624;2023-06-22T05:14:27;15.25;;;7.15;;
63801;SDS011;49949;43.060;25.624;2023-06-22T05:16:53;20.38;;;7.47;;
63801;SDS011;49949;43.060;25.624;2023-06-22T05:19:19;14.55;;;7.13;;
63801;SDS011;49949;43.060;25.624;2023-06-22T05:21:49;16.70;;;7.65;;
63801;SDS011;49949;43.060;25.624;2023-06-22T05:24:15;10.80;;;6.90;;
63801;SDS011;49949;43.060;25.624;2023-06-22T05:26:41;13.90;;;5.82;;
63801;SDS011;49949;43.060;25.624;2023-06-22T05:29:06;10.77;;;5.65;;
63801;SDS011;49949;43.060;25.624;2023-06-22T05:31:34;11.95;;;6.05;;
63801;SDS011;49949;43.060;25.624;2023-06-22T05:34:00;10.55;;;5.88;;
63801;SDS011;49949;43.060;25.624;2023-06-22T05:36:27;8.13;;;5.07;;
63801;SDS011;49949;43.060;25.624;2023-06-22T05:38:52;8.02;;;5.80;;
63801;SDS011;49949;43.060;25.624;2023-06-22T05:41:20;11.20;;;5.28;;
63801;SDS011;49949;43.060;25.624;2023-06-22T05:43:46;10.68;;;5.75;;
63801;SDS011;49949;43.060;25.624;2023-06-22T05:46:12;12.27;;;5.78;;
63801;SDS011;49949;43.060;25.624;2023-06-22T05:48:38;8.35;;;5.68;;
63801;SDS011;49949;43.060;25.624;2023-06-22T05:51:03;9.43;;;6.00;;
63801;SDS011;49949;43.060;25.624;2023-06-22T05:53:29;9.57;;;6.03;;
63801;SDS011;49949;43.060;25.624;2023-06-22T05:58:26;9.07;;;5.43;;
63801;SDS011;49949;43.060;25.624;2023-06-22T06:00:52;6.90;;;5.65;;
63801;SDS011;49949;43.060;25.624;2023-06-22T06:03:18;8.68;;;6.45;;
63801;SDS011;49949;43.060;25.624;2023-06-22T06:05:44;10.50;;;6.57;;
63801;SDS011;49949;43.060;25.624;2023-06-22T06:08:10;9.48;;;5.15;;
63801;SDS011;49949;43.060;25.624;2023-06-22T06:10:38;13.23;;;6.38;;
63801;SDS011;49949;43.060;25.624;2023-06-22T06:13:04;13.80;;;6.35;;
63801;SDS011;49949;43.060;25.624;2023-06-22T06:15:30;12.70;;;6.30;;
63801;SDS011;49949;43.060;25.624;2023-06-22T06:17:57;12.32;;;6.53;;
63801;SDS011;49949;43.060;25.624;2023-06-22T06:20:23;14.23;;;8.13;;
63801;SDS011;49949;43.060;25.624;2023-06-22T06:22:50;33.08;;;19.85;;
63801;SDS011;49949;43.060;25.624;2023-06-22T06:25:17;52.88;;;29.60;;
63801;SDS011;49949;43.060;25.624;2023-06-22T06:27:49;28.08;;;16.90;;
63801;SDS011;49949;43.060;25.624;2023-06-22T06:30:16;29.75;;;16.77;;
63801;SDS011;49949;43.060;25.624;2023-06-22T06:32:43;26.45;;;17.77;;
63801;SDS011;49949;43.060;25.624;2023-06-22T06:35:11;38.08;;;20.83;;
63801;SDS011;49949;43.060;25.624;2023-06-22T06:37:39;36.38;;;21.25;;
63801;SDS011;49949;43.060;25.624;2023-06-22T06:40:09;30.02;;;18.20;;
63801;SDS011;49949;43.060;25.624;2023-06-22T06:42:36;32.65;;;16.55;;
63801;SDS011;49949;43.060;25.624;2023-06-22T06:45:18;32.78;;;18.42;;
63801;SDS011;49949;43.060;25.624;2023-06-22T06:47:45;33.38;;;19.13;;
63801;SDS011;49949;43.060;25.624;2023-06-22T06:50:11;32.20;;;17.17;;
63801;SDS011;49949;43.060;25.624;2023-06-22T06:52:37;26.60;;;15.48;;
63801;SDS011;49949;43.060;25.624;2023-06-22T06:55:03;20.08;;;14.48;;
63801;SDS011;49949;43.060;25.624;2023-06-22T06:57:30;31.17;;;13.55;;
63801;SDS011;49949;43.060;25.624;2023-06-22T07:00:06;20.83;;;12.93;;
63801;SDS011;49949;43.060;25.624;2023-06-22T07:02:39;19.23;;;11.55;;
63801;SDS011;49949;43.060;25.624;2023-06-22T07:05:09;14.98;;;10.82;;
63801;SDS011;49949;43.060;25.624;2023-06-22T07:07:35;16.17;;;10.90;;
63801;SDS011;49949;43.060;25.624;2023-06-22T07:10:01;15.45;;;10.77;;
63801;SDS011;49949;43.060;25.624;2023-06-22T07:12:28;16.00;;;10.55;;
63801;SDS011;49949;43.060;25.624;2023-06-22T07:15:02;12.50;;;10.07;;
63801;SDS011;49949;43.060;25.624;2023-06-22T07:17:36;16.67;;;9.70;;
63801;SDS011;49949;43.060;25.624;2023-06-22T07:20:02;17.10;;;10.45;;
63801;SDS011;49949;43.060;25.624;2023-06-22T07:22:37;19.33;;;9.32;;
63801;SDS011;49949;43.060;25.624;2023-06-22T07:25:03;9.93;;;7.32;;
63801;SDS011;49949;43.060;25.624;2023-06-22T07:27:34;12.63;;;7.18;;
63801;SDS011;49949;43.060;25.624;2023-06-22T07:30:03;9.75;;;6.80;;
63801;SDS011;49949;43.060;25.624;2023-06-22T07:32:29;10.00;;;7.07;;
63801;SDS011;49949;43.060;25.624;2023-06-22T07:34:58;10.80;;;7.20;;
63801;SDS011;49949;43.060;25.624;2023-06-22T07:37:26;11.05;;;6.85;;
63801;SDS011;49949;43.060;25.624;2023-06-22T07:39:55;8.45;;;7.25;;
63801;SDS011;49949;43.060;25.624;2023-06-22T07:42:29;8.23;;;6.82;;
63801;SDS011;49949;43.060;25.624;2023-06-22T07:44:57;14.88;;;7.22;;
63801;SDS011;49949;43.060;25.624;2023-06-22T07:47:23;8.50;;;7.07;;
63801;SDS011;49949;43.060;25.624;2023-06-22T07:49:53;12.57;;;7.40;;
63801;SDS011;49949;43.060;25.624;2023-06-22T07:52:20;15.82;;;7.57;;
63801;SDS011;49949;43.060;25.624;2023-06-22T07:54:46;10.05;;;8.60;;
63801;SDS011;49949;43.060;25.624;2023-06-22T07:57:12;14.70;;;7.93;;
63801;SDS011;49949;43.060;25.624;2023-06-22T07:59:38;12.07;;;8.48;;
63801;SDS011;49949;43.060;25.624;2023-06-22T08:02:06;10.60;;;8.52;;
63801;SDS011;49949;43.060;25.624;2023-06-22T08:04:35;10.85;;;7.97;;
63801;SDS011;49949;43.060;25.624;2023-06-22T08:07:04;10.20;;;8.43;;
63801;SDS011;49949;43.060;25.624;2023-06-22T08:09:32;11.88;;;7.18;;
63801;SDS011;49949;43.060;25.624;2023-06-22T08:12:01;9.35;;;6.80;;
63801;SDS011;49949;43.060;25.624;2023-06-22T08:14:27;14.32;;;7.47;;
63801;SDS011;49949;43.060;25.624;2023-06-22T08:16:54;10.88;;;7.40;;
63801;SDS011;49949;43.060;25.624;2023-06-22T08:19:20;14.18;;;8.52;;
63801;SDS011;49949;43.060;25.624;2023-06-22T08:21:47;12.38;;;7.13;;
63801;SDS011;49949;43.060;25.624;2023-06-22T08:24:12;10.73;;;7.05;;
63801;SDS011;49949;43.060;25.624;2023-06-22T08:26:38;7.55;;;5.80;;
63801;SDS011;49949;43.060;25.624;2023-06-22T08:29:04;5.95;;;5.18;;
63801;SDS011;49949;43.060;25.624;2023-06-22T08:31:31;7.68;;;6.15;;
63801;SDS011;49949;43.060;25.624;2023-06-22T08:33:59;6.78;;;5.70;;
63801;SDS011;49949;43.060;25.624;2023-06-22T08:36:25;9.63;;;6.07;;
63801;SDS011;49949;43.060;25.624;2023-06-22T08:38:55;7.38;;;6.18;;
63801;SDS011;49949;43.060;25.624;2023-06-22T08:41:27;8.77;;;6.53;;
63801;SDS011;49949;43.060;25.624;2023-06-22T08:44:00;15.73;;;7.03;;
63801;SDS011;49949;43.060;25.624;2023-06-22T08:46:29;11.17;;;6.43;;
63801;SDS011;49949;43.060;25.624;2023-06-22T08:48:59;7.60;;;6.30;;
63801;SDS011;49949;43.060;25.624;2023-06-22T08:51:26;8.57;;;6.00;;
63801;SDS011;49949;43.060;25.624;2023-06-22T08:53:52;13.27;;;6.43;;
63801;SDS011;49949;43.060;25.624;2023-06-22T08:56:19;7.70;;;5.95;;
63801;SDS011;49949;43.060;25.624;2023-06-22T08:58:47;10.43;;;7.00;;
63801;SDS011;49949;43.060;25.624;2023-06-22T09:01:13;15.15;;;7.22;;
63801;SDS011;49949;43.060;25.624;2023-06-22T09:03:40;12.80;;;7.82;;
63801;SDS011;49949;43.060;25.624;2023-06-22T09:06:21;11.23;;;8.63;;
63801;SDS011;49949;43.060;25.624;2023-06-22T09:08:47;11.77;;;7.75;;
63801;SDS011;49949;43.060;25.624;2023-06-22T09:11:14;10.98;;;7.07;;
63801;SDS011;49949;43.060;25.624;2023-06-22T09:13:40;10.90;;;7.80;;
63801;SDS011;49949;43.060;25.624;2023-06-22T09:16:07;7.15;;;6.45;;
63801;SDS011;49949;43.060;25.624;2023-06-22T09:18:34;11.95;;;7.35;;
63801;SDS011;49949;43.060;25.624;2023-06-22T09:21:01;10.20;;;6.53;;
63801;SDS011;49949;43.060;25.624;2023-06-22T09:23:28;9.45;;;7.28;;
63801;SDS011;49949;43.060;25.624;2023-06-22T09:25:54;32.65;;;8.20;;
63801;SDS011;49949;43.060;25.624;2023-06-22T09:28:19;6.60;;;5.60;;
63801;SDS011;49949;43.060;25.624;2023-06-22T09:30:48;9.57;;;5.90;;
63801;SDS011;49949;43.060;25.624;2023-06-22T09:33:14;15.07;;;5.35;;
63801;SDS011;49949;43.060;25.624;2023-06-22T09:35:39;6.00;;;5.22;;
63801;SDS011;49949;43.060;25.624;2023-06-22T09:38:06;7.65;;;5.18;;
63801;SDS011;49949;43.060;25.624;2023-06-22T09:40:32;5.63;;;5.13;;
63801;SDS011;49949;43.060;25.624;2023-06-22T09:43:00;7.65;;;6.05;;
63801;SDS011;49949;43.060;25.624;2023-06-22T09:45:26;8.75;;;4.97;;
63801;SDS011;49949;43.060;25.624;2023-06-22T09:47:52;6.13;;;5.45;;
63801;SDS011;49949;43.060;25.624;2023-06-22T09:50:23;7.13;;;5.28;;
63801;SDS011;49949;43.060;25.624;2023-06-22T09:52:49;8.27;;;6.25;;
63801;SDS011;49949;43.060;25.624;2023-06-22T09:55:20;17.23;;;6.43;;
63801;SDS011;49949;43.060;25.624;2023-06-22T09:57:49;6.43;;;5.78;;
63801;SDS011;49949;43.060;25.624;2023-06-22T10:00:15;6.38;;;5.82;;
63801;SDS011;49949;43.060;25.624;2023-06-22T10:02:42;7.55;;;6.07;;
63801;SDS011;49949;43.060;25.624;2023-06-22T10:05:08;5.93;;;5.45;;
63801;SDS011;49949;43.060;25.624;2023-06-22T10:07:35;9.60;;;6.20;;
63801;SDS011;49949;43.060;25.624;2023-06-22T10:10:07;8.70;;;6.35;;
63801;SDS011;49949;43.060;25.624;2023-06-22T10:12:33;7.53;;;6.20;;
63801;SDS011;49949;43.060;25.624;2023-06-22T10:14:59;6.47;;;5.88;;
63801;SDS011;49949;43.060;25.624;2023-06-22T10:17:25;9.77;;;5.80;;
63801;SDS011;49949;43.060;25.624;2023-06-22T10:19:51;5.68;;;5.18;;
63801;SDS011;49949;43.060;25.624;2023-06-22T10:22:17;9.88;;;5.78;;
63801;SDS011;49949;43.060;25.624;2023-06-22T10:24:43;9.55;;;6.13;;
63801;SDS011;49949;43.060;25.624;2023-06-22T10:27:12;6.15;;;5.65;;
63801;SDS011;49949;43.060;25.624;2023-06-22T10:29:39;7.97;;;5.90;;
63801;SDS011;49949;43.060;25.624;2023-06-22T10:32:07;5.88;;;5.20;;
63801;SDS011;49949;43.060;25.624;2023-06-22T10:34:33;9.88;;;5.72;;
63801;SDS011;49949;43.060;25.624;2023-06-22T10:36:59;6.93;;;5.63;;
63801;SDS011;49949;43.060;25.624;2023-06-22T10:39:25;6.15;;;5.38;;
63801;SDS011;49949;43.060;25.624;2023-06-22T10:41:53;8.55;;;6.57;;
63801;SDS011;49949;43.060;25.624;2023-06-22T10:44:19;8.23;;;5.40;;
63801;SDS011;49949;43.060;25.624;2023-06-22T10:46:45;7.28;;;5.40;;
63801;SDS011;49949;43.060;25.624;2023-06-22T10:49:13;6.45;;;4.80;;
63801;SDS011;49949;43.060;25.624;2023-06-22T10:51:40;8.68;;;5.18;;
63801;SDS011;49949;43.060;25.624;2023-06-22T10:54:06;6.40;;;5.15;;
63801;SDS011;49949;43.060;25.624;2023-06-22T10:56:32;6.85;;;4.50;;
63801;SDS011;49949;43.060;25.624;2023-06-22T10:58:58;5.43;;;4.93;;
63801;SDS011;49949;43.060;25.624;2023-06-22T11:01:24;7.97;;;5.20;;
63801;SDS011;49949;43.060;25.624;2023-06-22T11:03:50;7.97;;;4.60;;
63801;SDS011;49949;43.060;25.624;2023-06-22T11:06:15;8.40;;;5.15;;
63801;SDS011;49949;43.060;25.624;2023-06-22T11:08:43;13.77;;;5.28;;
63801;SDS011;49949;43.060;25.624;2023-06-22T11:11:12;8.73;;;5.43;;
63801;SDS011;49949;43.060;25.624;2023-06-22T11:13:38;7.13;;;5.43;;
63801;SDS011;49949;43.060;25.624;2023-06-22T11:16:05;6.10;;;5.43;;
63801;SDS011;49949;43.060;25.624;2023-06-22T11:18:32;5.70;;;5.20;;
63801;SDS011;49949;43.060;25.624;2023-06-22T11:20:59;6.28;;;5.60;;
63801;SDS011;49949;43.060;25.624;2023-06-22T11:23:24;8.05;;;4.82;;
63801;SDS011;49949;43.060;25.624;2023-06-22T11:25:51;6.38;;;5.18;;
63801;SDS011;49949;43.060;25.624;2023-06-22T11:28:17;33.47;;;5.57;;
63801;SDS011;49949;43.060;25.624;2023-06-22T11:30:43;9.02;;;5.13;;
63801;SDS011;49949;43.060;25.624;2023-06-22T11:33:10;7.18;;;5.05;;
63801;SDS011;49949;43.060;25.624;2023-06-22T11:35:37;11.45;;;4.70;;
63801;SDS011;49949;43.060;25.624;2023-06-22T11:38:03;7.43;;;4.63;;
63801;SDS011;49949;43.060;25.624;2023-06-22T11:40:32;4.85;;;4.40;;
63801;SDS011;49949;43.060;25.624;2023-06-22T11:42:58;20.73;;;4.75;;
63801;SDS011;49949;43.060;25.624;2023-06-22T11:45:24;4.53;;;4.05;;
63801;SDS011;49949;43.060;25.624;2023-06-22T11:47:49;10.80;;;4.50;;
63801;SDS011;49949;43.060;25.624;2023-06-22T11:50:15;9.88;;;4.30;;
63801;SDS011;49949;43.060;25.624;2023-06-22T11:52:41;4.97;;;4.13;;
63801;SDS011;49949;43.060;25.624;2023-06-22T11:55:07;4.53;;;4.10;;
63801;SDS011;49949;43.060;25.624;2023-06-22T11:57:33;8.93;;;4.55;;
63801;SDS011;49949;43.060;25.624;2023-06-22T12:00:01;4.60;;;4.20;;
63801;SDS011;49949;43.060;25.624;2023-06-22T12:02:31;7.43;;;4.15;;
63801;SDS011;49949;43.060;25.624;2023-06-22T12:04:57;7.43;;;4.15;;
63801;SDS011;49949;43.060;25.624;2023-06-22T12:07:23;6.82;;;4.18;;
63801;SDS011;49949;43.060;25.624;2023-06-22T12:09:49;6.28;;;3.90;;
63801;SDS011;49949;43.060;25.624;2023-06-22T12:12:15;4.57;;;3.95;;
63801;SDS011;49949;43.060;25.624;2023-06-22T12:14:41;6.78;;;4.32;;
63801;SDS011;49949;43.060;25.624;2023-06-22T12:17:07;4.53;;;4.13;;
63801;SDS011;49949;43.060;25.624;2023-06-22T12:19:33;7.32;;;5.03;;
63801;SDS011;49949;43.060;25.624;2023-06-22T12:21:58;4.55;;;4.05;;
63801;SDS011;49949;43.060;25.624;2023-06-22T12:24:24;5.60;;;4.78;;
63801;SDS011;49949;43.060;25.624;2023-06-22T12:26:50;9.90;;;4.25;;
63801;SDS011;49949;43.060;25.624;2023-06-22T12:29:16;7.63;;;4.22;;
63801;SDS011;49949;43.060;25.624;2023-06-22T12:31:42;6.15;;;4.68;;
63801;SDS011;49949;43.060;25.624;2023-06-22T12:34:07;4.65;;;4.20;;
63801;SDS011;49949;43.060;25.624;2023-06-22T12:36:33;8.55;;;3.92;;
63801;SDS011;49949;43.060;25.624;2023-06-22T12:38:59;9.45;;;4.28;;
63801;SDS011;49949;43.060;25.624;2023-06-22T12:41:25;5.70;;;4.00;;
63801;SDS011;49949;43.060;25.624;2023-06-22T12:43:51;28.23;;;5.75;;
63801;SDS011;49949;43.060;25.624;2023-06-22T12:46:17;6.30;;;3.65;;
63801;SDS011;49949;43.060;25.624;2023-06-22T12:48:42;5.15;;;4.05;;
63801;SDS011;49949;43.060;25.624;2023-06-22T12:51:09;10.13;;;4.70;;
63801;SDS011;49949;43.060;25.624;2023-06-22T12:53:35;5.40;;;4.00;;
63801;SDS011;49949;43.060;25.624;2023-06-22T12:56:01;4.78;;;4.07;;
63801;SDS011;49949;43.060;25.624;2023-06-22T12:58:26;5.43;;;4.15;;
63801;SDS011;49949;43.060;25.624;2023-06-22T13:00:52;4.70;;;4.15;;
63801;SDS011;49949;43.060;25.624;2023-06-22T13:03:18;5.13;;;4.28;;
63801;SDS011;49949;43.060;25.624;2023-06-22T13:05:44;4.85;;;4.10;;
63801;SDS011;49949;43.060;25.624;2023-06-22T13:08:10;5.50;;;3.45;;
63801;SDS011;49949;43.060;25.624;2023-06-22T13:10:39;5.10;;;3.83;;
63801;SDS011;49949;43.060;25.624;2023-06-22T13:13:04;5.80;;;4.10;;
63801;SDS011;49949;43.060;25.624;2023-06-22T13:15:30;4.60;;;4.20;;
63801;SDS011;49949;43.060;25.624;2023-06-22T13:17:56;5.82;;;3.90;;
63801;SDS011;49949;43.060;25.624;2023-06-22T13:20:21;4.35;;;3.55;;
63801;SDS011;49949;43.060;25.624;2023-06-22T13:22:47;5.80;;;3.97;;
63801;SDS011;49949;43.060;25.624;2023-06-22T13:25:13;4.43;;;4.03;;
63801;SDS011;49949;43.060;25.624;2023-06-22T13:27:43;7.40;;;3.83;;
63801;SDS011;49949;43.060;25.624;2023-06-22T13:30:10;7.22;;;3.95;;
63801;SDS011;49949;43.060;25.624;2023-06-22T13:32:36;4.15;;;3.85;;
63801;SDS011;49949;43.060;25.624;2023-06-22T13:35:02;4.32;;;3.90;;
63801;SDS011;49949;43.060;25.624;2023-06-22T13:37:27;4.13;;;3.78;;
63801;SDS011;49949;43.060;25.624;2023-06-22T13:39:53;4.95;;;4.20;;
63801;SDS011;49949;43.060;25.624;2023-06-22T13:42:21;5.40;;;3.83;;
63801;SDS011;49949;43.060;25.624;2023-06-22T13:44:48;4.38;;;3.97;;
63801;SDS011;49949;43.060;25.624;2023-06-22T13:47:13;4.13;;;3.72;;
63801;SDS011;49949;43.060;25.624;2023-06-22T13:49:39;5.55;;;4.07;;
63801;SDS011;49949;43.060;25.624;2023-06-22T13:52:05;4.40;;;4.00;;
63801;SDS011;49949;43.060;25.624;2023-06-22T13:54:35;6.88;;;3.90;;
63801;SDS011;49949;43.060;25.624;2023-06-22T13:57:01;6.53;;;4.07;;
63801;SDS011;49949;43.060;25.624;2023-06-22T13:59:27;7.68;;;4.38;;
63801;SDS011;49949;43.060;25.624;2023-06-22T14:01:53;5.50;;;3.95;;
63801;SDS011;49949;43.060;25.624;2023-06-22T14:04:21;13.00;;;4.30;;
63801;SDS011;49949;43.060;25.624;2023-06-22T14:06:50;5.80;;;4.25;;
63801;SDS011;49949;43.060;25.624;2023-06-22T14:09:16;6.00;;;4.20;;
63801;SDS011;49949;43.060;25.624;2023-06-22T14:11:41;8.20;;;4.22;;
63801;SDS011;49949;43.060;25.624;2023-06-22T14:14:07;6.50;;;4.57;;
63801;SDS011;49949;43.060;25.624;2023-06-22T14:16:33;5.60;;;4.40;;
63801;SDS011;49949;43.060;25.624;2023-06-22T14:19:01;4.88;;;4.47;;
63801;SDS011;49949;43.060;25.624;2023-06-22T14:21:27;5.28;;;4.53;;
63801;SDS011;49949;43.060;25.624;2023-06-22T14:23:53;7.47;;;4.20;;
63801;SDS011;49949;43.060;25.624;2023-06-22T14:26:18;5.72;;;4.50;;
63801;SDS011;49949;43.060;25.624;2023-06-22T14:28:47;5.63;;;4.00;;
63801;SDS011;49949;43.060;25.624;2023-06-22T14:31:15;6.20;;;4.13;;
63801;SDS011;49949;43.060;25.624;2023-06-22T14:33:46;6.13;;;4.30;;